»·PEaware :: N215A KVGT-KSBD

N215A :: KVGT-KSBD

FLIGHT INFORMATION

Flight Status: Arrived
Operator: Privately registered:
United States
More flights under this callsign
Pilot: Ken S. (16838)
Aircraft: PILATUS PC-12 EAGLE
(PC12)
More flights by this aircraft type
Origin: KVGT North Las Vegas
United States
Destination: KSBD San Bernardino Intl
United States
More flights between these airports :: More routes between these airports
Route: +
File this flight plan on PilotEdge
Remarks: Sample flight plan
Altitude:
(Current/Filed)
8,000ft
Speed:
(Current/Filed)
100kts
Departed: 21-Dec-18 06:47 PM
Arrived: 21-Dec-18 07:43 PM
Distance/Time
Traveled:
161nm/0:56
Distance/Time
To Go:
Arrived

Flight Plot

Page will automatically refresh every two minutes.

Flight plan parsing failed; only flown route is shown


Map Options




Map Legend


Flown Route
Filed Route
Departure Airport
Arrival Airport
Navaid (VOR, NDB)
Fix

Horizontal Profiles

Position Reports

Time Latitude Longitude Heading Altitude Ground
Speed
21-Dec-18 18:33 36.208252 -115.197778 177 2209ft 0kts
21-Dec-18 18:34 36.208252 -115.197778 177 2209ft 0kts
21-Dec-18 18:35 36.208252 -115.197778 177 2209ft 0kts
21-Dec-18 18:36 36.208252 -115.197778 177 2209ft 0kts
21-Dec-18 18:37 36.208252 -115.197778 177 2209ft 0kts
21-Dec-18 18:38 36.208252 -115.197778 177 2209ft 0kts
21-Dec-18 18:39 36.208252 -115.197778 177 2209ft 0kts
21-Dec-18 18:40 36.208252 -115.197778 177 2209ft 0kts
21-Dec-18 18:41 36.208892 -115.198594 7 2209ft 21kts
21-Dec-18 18:42 36.206947 -115.194070 133 2209ft 20kts
21-Dec-18 18:43 36.204665 -115.191092 44 2209ft 0kts
21-Dec-18 18:44 36.204665 -115.191092 44 2209ft 0kts
21-Dec-18 18:45 36.204872 -115.190881 38 2209ft 10kts
21-Dec-18 18:46 36.223299 -115.211256 309 3087ft 124kts
21-Dec-18 18:47 36.247575 -115.249613 301 4768ft 165kts
21-Dec-18 18:48 36.247663 -115.301921 243 7018ft 165kts
21-Dec-18 18:49 36.212028 -115.349203 215 7923ft 214kts
21-Dec-18 18:50 36.156770 -115.381579 202 8499ft 233kts
21-Dec-18 18:51 36.090785 -115.404381 195 8263ft 252kts
21-Dec-18 18:52 36.024698 -115.428253 202 8486ft 247kts
21-Dec-18 18:53 35.965796 -115.454605 201 8283ft 236kts
21-Dec-18 18:54 35.913476 -115.494661 225 9250ft 226kts
21-Dec-18 18:55 35.862286 -115.539169 211 9829ft 231kts
21-Dec-18 18:56 35.800211 -115.575346 207 9151ft 261kts
21-Dec-18 18:57 35.732904 -115.609765 199 8560ft 262kts
21-Dec-18 18:58 35.666196 -115.643857 211 7901ft 256kts
21-Dec-18 18:59 35.606756 -115.683666 211 7379ft 255kts
21-Dec-18 19:00 35.548254 -115.729093 209 7236ft 241kts
21-Dec-18 19:01 35.491041 -115.768507 209 7399ft 240kts
21-Dec-18 19:02 35.435751 -115.804038 201 8247ft 209kts
21-Dec-18 19:03 35.383244 -115.838989 218 8313ft 225kts
21-Dec-18 19:04 35.333358 -115.884790 215 8223ft 229kts
21-Dec-18 19:05 35.284291 -115.932101 216 8286ft 224kts
21-Dec-18 19:06 35.234792 -115.975473 221 8554ft 222kts
21-Dec-18 19:07 35.188328 -116.024674 220 8336ft 226kts
21-Dec-18 19:08 35.142004 -116.078169 219 7943ft 234kts
21-Dec-18 19:09 35.093671 -116.131340 223 7834ft 231kts
21-Dec-18 19:10 35.047366 -116.184598 227 7923ft 228kts
21-Dec-18 19:11 35.001935 -116.238583 223 8007ft 229kts
21-Dec-18 19:12 34.954164 -116.289243 220 8088ft 229kts
21-Dec-18 19:13 34.906850 -116.339129 222 8353ft 224kts
21-Dec-18 19:14 34.862507 -116.384166 225 7952ft 234kts
21-Dec-18 19:15 34.819147 -116.435931 228 7967ft 223kts
21-Dec-18 19:16 34.779857 -116.493627 234 8062ft 221kts
21-Dec-18 19:17 34.749224 -116.556125 248 8449ft 214kts
21-Dec-18 19:18 34.729230 -116.624720 245 8702ft 216kts
21-Dec-18 19:19 34.701587 -116.680262 237 8303ft 230kts
21-Dec-18 19:20 34.666622 -116.739098 235 7885ft 231kts
21-Dec-18 19:21 34.630432 -116.800989 227 7569ft 234kts
21-Dec-18 19:23 34.599314 -116.866974 243 7608ft 219kts
21-Dec-18 19:24 34.573466 -116.929831 246 8010ft 211kts
21-Dec-18 19:25 34.545847 -116.992337 240 8195ft 213kts
21-Dec-18 19:26 34.512717 -117.049635 240 8530ft 212kts
21-Dec-18 19:27 34.477644 -117.109618 236 8430ft 219kts
21-Dec-18 19:28 34.442265 -117.171919 247 8022ft 227kts
21-Dec-18 19:29 34.408250 -117.236988 240 7375ft 236kts
21-Dec-18 19:30 34.377735 -117.299943 245 7922ft 201kts
21-Dec-18 19:31 34.351784 -117.357545 244 8538ft 200kts
21-Dec-18 19:32 34.321057 -117.418802 237 7846ft 234kts
21-Dec-18 19:33 34.262992 -117.458718 184 6031ft 247kts
21-Dec-18 19:34 34.214022 -117.423870 136 4999ft 178kts
21-Dec-18 19:35 34.181946 -117.386691 134 3911ft 153kts
21-Dec-18 19:36 34.152524 -117.347879 139 2514ft 144kts
21-Dec-18 19:37 34.130244 -117.321652 90 1781ft 87kts
21-Dec-18 19:38 34.137058 -117.282796 80 2185ft 128kts
21-Dec-18 19:38 34.138092 -117.244564 98 2117ft 133kts
21-Dec-18 19:40 34.113029 -117.230028 276 1831ft 134kts
21-Dec-18 19:41 34.104223 -117.269031 242 1820ft 113kts
21-Dec-18 19:42 34.084350 -117.264466 64 1546ft 91kts
21-Dec-18 19:43 34.092287 -117.245193 68 1161ft 16kts
21-Dec-18 19:43 34.094496 -117.240930 28 1161ft 0kts
21-Dec-18 19:45 34.097589 -117.233432 71 1161ft 33kts
21-Dec-18 19:45 34.100071 -117.226518 53 1161ft 22kts

Navigation Log

Ident Type
Flight plan parsing failed, navigation log unavailable